sensor_id;sensor_type;location;lat;lon;timestamp;P1;durP1;ratioP1;P2;durP2;ratioP2
37593;SDS011;23441;50.856;6.076;2023-08-12T14:13:11;2.50;;;1.15;;
37593;SDS011;23441;50.856;6.076;2023-08-12T14:15:37;2.78;;;1.20;;
37593;SDS011;23441;50.856;6.076;2023-08-12T14:18:02;1.52;;;1.25;;
37593;SDS011;23441;50.856;6.076;2023-08-12T14:20:28;1.40;;;0.90;;
37593;SDS011;23441;50.856;6.076;2023-08-12T14:22:54;1.85;;;1.00;;
37593;SDS011;23441;50.856;6.076;2023-08-12T14:25:19;3.38;;;0.90;;
37593;SDS011;23441;50.856;6.076;2023-08-12T14:27:45;1.10;;;1.00;;
37593;SDS011;23441;50.856;6.076;2023-08-12T14:30:11;1.05;;;0.95;;
37593;SDS011;23441;50.856;6.076;2023-08-12T14:32:37;1.50;;;1.17;;
37593;SDS011;23441;50.856;6.076;2023-08-12T14:35:03;2.70;;;0.90;;
37593;SDS011;23441;50.856;6.076;2023-08-12T14:37:30;1.75;;;1.00;;
37593;SDS011;23441;50.856;6.076;2023-08-12T14:39:56;2.97;;;1.25;;
37593;SDS011;23441;50.856;6.076;2023-08-12T14:42:22;1.67;;;1.20;;
37593;SDS011;23441;50.856;6.076;2023-08-12T14:44:47;1.92;;;1.15;;
37593;SDS011;23441;50.856;6.076;2023-08-12T14:47:13;3.17;;;1.25;;
37593;SDS011;23441;50.856;6.076;2023-08-12T14:49:39;2.88;;;1.30;;
37593;SDS011;23441;50.856;6.076;2023-08-12T14:52:04;3.95;;;1.50;;
37593;SDS011;23441;50.856;6.076;2023-08-12T14:54:30;2.65;;;1.60;;
37593;SDS011;23441;50.856;6.076;2023-08-12T14:56:56;2.30;;;1.55;;
37593;SDS011;23441;50.856;6.076;2023-08-12T14:59:22;4.18;;;1.65;;
37593;SDS011;23441;50.856;6.076;2023-08-12T15:01:48;2.80;;;1.80;;
37593;SDS011;23441;50.856;6.076;2023-08-12T15:04:14;4.85;;;2.22;;
37593;SDS011;23441;50.856;6.076;2023-08-12T15:06:39;3.00;;;1.85;;
37593;SDS011;23441;50.856;6.076;2023-08-12T15:09:05;2.83;;;1.77;;
37593;SDS011;23441;50.856;6.076;2023-08-12T15:11:31;4.28;;;2.13;;
37593;SDS011;23441;50.856;6.076;2023-08-12T15:13:57;5.05;;;1.98;;
37593;SDS011;23441;50.856;6.076;2023-08-12T15:16:23;3.10;;;1.80;;
37593;SDS011;23441;50.856;6.076;2023-08-12T15:18:49;3.22;;;1.70;;
37593;SDS011;23441;50.856;6.076;2023-08-12T15:21:14;5.07;;;1.90;;
37593;SDS011;23441;50.856;6.076;2023-08-12T15:23:41;4.70;;;2.03;;
37593;SDS011;23441;50.856;6.076;2023-08-12T15:26:06;5.43;;;1.90;;
37593;SDS011;23441;50.856;6.076;2023-08-12T15:28:32;5.50;;;1.85;;
37593;SDS011;23441;50.856;6.076;2023-08-12T15:30:58;4.40;;;1.77;;
37593;SDS011;23441;50.856;6.076;2023-08-12T15:33:23;5.60;;;2.20;;
37593;SDS011;23441;50.856;6.076;2023-08-12T15:35:49;4.43;;;2.25;;
37593;SDS011;23441;50.856;6.076;2023-08-12T15:38:15;5.72;;;2.10;;
37593;SDS011;23441;50.856;6.076;2023-08-12T15:40:40;3.70;;;1.80;;
37593;SDS011;23441;50.856;6.076;2023-08-12T15:43:06;3.00;;;1.70;;
37593;SDS011;23441;50.856;6.076;2023-08-12T15:45:32;6.28;;;2.00;;
37593;SDS011;23441;50.856;6.076;2023-08-12T15:47:57;2.42;;;1.83;;
37593;SDS011;23441;50.856;6.076;2023-08-12T15:50:23;3.75;;;1.90;;
37593;SDS011;23441;50.856;6.076;2023-08-12T15:52:49;3.35;;;1.92;;
37593;SDS011;23441;50.856;6.076;2023-08-12T15:55:14;4.22;;;2.22;;
37593;SDS011;23441;50.856;6.076;2023-08-12T15:57:40;3.90;;;1.42;;
37593;SDS011;23441;50.856;6.076;2023-08-12T16:00:05;4.43;;;1.40;;
37593;SDS011;23441;50.856;6.076;2023-08-12T16:02:33;3.40;;;1.58;;
37593;SDS011;23441;50.856;6.076;2023-08-12T16:04:59;3.85;;;1.50;;
37593;SDS011;23441;50.856;6.076;2023-08-12T16:07:25;3.22;;;1.33;;
37593;SDS011;23441;50.856;6.076;2023-08-12T16:09:51;4.47;;;1.60;;
37593;SDS011;23441;50.856;6.076;2023-08-12T16:12:16;2.72;;;1.38;;
37593;SDS011;23441;50.856;6.076;2023-08-12T16:14:44;3.75;;;1.45;;
37593;SDS011;23441;50.856;6.076;2023-08-12T16:17:10;2.97;;;1.48;;
37593;SDS011;23441;50.856;6.076;2023-08-12T16:19:36;4.82;;;1.60;;
37593;SDS011;23441;50.856;6.076;2023-08-12T16:22:01;3.53;;;1.20;;
37593;SDS011;23441;50.856;6.076;2023-08-12T16:24:27;3.72;;;1.52;;
37593;SDS011;23441;50.856;6.076;2023-08-12T16:26:53;2.88;;;1.23;;
37593;SDS011;23441;50.856;6.076;2023-08-12T16:29:18;6.00;;;1.92;;
37593;SDS011;23441;50.856;6.076;2023-08-12T16:31:44;4.68;;;1.17;;
37593;SDS011;23441;50.856;6.076;2023-08-12T16:34:10;3.13;;;1.85;;
37593;SDS011;23441;50.856;6.076;2023-08-12T16:36:35;4.20;;;1.67;;
37593;SDS011;23441;50.856;6.076;2023-08-12T16:39:01;4.50;;;1.70;;
37593;SDS011;23441;50.856;6.076;2023-08-12T16:41:26;2.83;;;1.85;;
37593;SDS011;23441;50.856;6.076;2023-08-12T16:43:52;3.55;;;1.73;;
37593;SDS011;23441;50.856;6.076;2023-08-12T16:46:17;3.42;;;1.42;;
37593;SDS011;23441;50.856;6.076;2023-08-12T16:48:43;4.13;;;1.92;;
37593;SDS011;23441;50.856;6.076;2023-08-12T16:51:09;3.55;;;1.58;;
37593;SDS011;23441;50.856;6.076;2023-08-12T16:53:34;3.42;;;1.75;;
37593;SDS011;23441;50.856;6.076;2023-08-12T16:56:00;2.78;;;1.50;;
37593;SDS011;23441;50.856;6.076;2023-08-12T16:58:26;3.38;;;1.92;;
37593;SDS011;23441;50.856;6.076;2023-08-12T17:00:52;2.97;;;1.33;;
37593;SDS011;23441;50.856;6.076;2023-08-12T17:03:17;3.72;;;1.73;;
37593;SDS011;23441;50.856;6.076;2023-08-12T17:05:43;3.75;;;1.80;;
37593;SDS011;23441;50.856;6.076;2023-08-12T17:08:09;8.02;;;2.00;;
37593;SDS011;23441;50.856;6.076;2023-08-12T17:10:38;2.90;;;1.52;;
37593;SDS011;23441;50.856;6.076;2023-08-12T17:13:05;2.60;;;1.55;;
37593;SDS011;23441;50.856;6.076;2023-08-12T17:15:31;3.10;;;1.73;;
37593;SDS011;23441;50.856;6.076;2023-08-12T17:17:57;4.15;;;1.70;;
37593;SDS011;23441;50.856;6.076;2023-08-12T17:20:22;3.00;;;1.73;;
37593;SDS011;23441;50.856;6.076;2023-08-12T17:22:48;3.58;;;1.90;;
37593;SDS011;23441;50.856;6.076;2023-08-12T17:25:14;6.45;;;1.60;;
37593;SDS011;23441;50.856;6.076;2023-08-12T17:27:39;4.93;;;1.92;;
37593;SDS011;23441;50.856;6.076;2023-08-12T17:30:05;4.80;;;2.00;;
37593;SDS011;23441;50.856;6.076;2023-08-12T17:32:31;3.88;;;1.83;;
37593;SDS011;23441;50.856;6.076;2023-08-12T17:34:57;3.75;;;1.80;;
37593;SDS011;23441;50.856;6.076;2023-08-12T17:37:22;4.05;;;1.92;;
37593;SDS011;23441;50.856;6.076;2023-08-12T17:39:48;4.75;;;1.70;;
37593;SDS011;23441;50.856;6.076;2023-08-12T17:42:15;3.45;;;1.80;;
37593;SDS011;23441;50.856;6.076;2023-08-12T17:44:40;6.20;;;1.65;;
37593;SDS011;23441;50.856;6.076;2023-08-12T17:47:06;4.22;;;1.95;;
37593;SDS011;23441;50.856;6.076;2023-08-12T17:49:31;5.07;;;2.05;;
37593;SDS011;23441;50.856;6.076;2023-08-12T17:51:57;6.47;;;2.42;;
37593;SDS011;23441;50.856;6.076;2023-08-12T17:54:22;4.28;;;2.47;;
37593;SDS011;23441;50.856;6.076;2023-08-12T17:56:53;6.25;;;2.55;;
37593;SDS011;23441;50.856;6.076;2023-08-12T17:59:19;8.27;;;1.90;;
37593;SDS011;23441;50.856;6.076;2023-08-12T18:01:44;6.57;;;2.22;;
37593;SDS011;23441;50.856;6.076;2023-08-12T18:04:10;5.82;;;2.30;;
37593;SDS011;23441;50.856;6.076;2023-08-12T18:06:35;3.95;;;2.00;;
37593;SDS011;23441;50.856;6.076;2023-08-12T18:09:01;4.30;;;2.22;;
37593;SDS011;23441;50.856;6.076;2023-08-12T18:11:28;6.00;;;2.10;;
37593;SDS011;23441;50.856;6.076;2023-08-12T18:13:54;5.45;;;2.15;;
37593;SDS011;23441;50.856;6.076;2023-08-12T18:16:19;3.80;;;2.03;;
37593;SDS011;23441;50.856;6.076;2023-08-12T18:18:45;4.93;;;2.40;;
37593;SDS011;23441;50.856;6.076;2023-08-12T18:21:11;6.88;;;3.35;;
37593;SDS011;23441;50.856;6.076;2023-08-12T18:23:36;6.22;;;2.70;;
37593;SDS011;23441;50.856;6.076;2023-08-12T18:26:02;9.02;;;3.28;;
37593;SDS011;23441;50.856;6.076;2023-08-12T18:28:28;7.18;;;3.35;;
37593;SDS011;23441;50.856;6.076;2023-08-12T18:30:53;6.35;;;3.30;;
37593;SDS011;23441;50.856;6.076;2023-08-12T18:33:19;5.45;;;2.47;;
37593;SDS011;23441;50.856;6.076;2023-08-12T18:35:44;5.80;;;2.92;;
37593;SDS011;23441;50.856;6.076;2023-08-12T18:38:10;5.05;;;2.22;;
37593;SDS011;23441;50.856;6.076;2023-08-12T18:40:36;6.13;;;2.42;;
37593;SDS011;23441;50.856;6.076;2023-08-12T18:43:02;4.10;;;2.28;;
37593;SDS011;23441;50.856;6.076;2023-08-12T18:45:28;5.40;;;2.20;;
37593;SDS011;23441;50.856;6.076;2023-08-12T18:47:54;5.18;;;2.30;;
37593;SDS011;23441;50.856;6.076;2023-08-12T18:50:19;5.50;;;2.10;;
37593;SDS011;23441;50.856;6.076;2023-08-12T18:52:45;4.82;;;2.20;;
37593;SDS011;23441;50.856;6.076;2023-08-12T18:55:11;4.13;;;2.10;;
37593;SDS011;23441;50.856;6.076;2023-08-12T18:57:37;5.50;;;2.17;;
37593;SDS011;23441;50.856;6.076;2023-08-12T19:00:03;6.03;;;2.17;;
37593;SDS011;23441;50.856;6.076;2023-08-12T19:02:32;4.57;;;2.13;;
37593;SDS011;23441;50.856;6.076;2023-08-12T19:04:59;7.57;;;2.35;;
37593;SDS011;23441;50.856;6.076;2023-08-12T19:07:26;10.45;;;2.75;;
37593;SDS011;23441;50.856;6.076;2023-08-12T19:09:52;6.20;;;2.58;;
37593;SDS011;23441;50.856;6.076;2023-08-12T19:12:17;5.07;;;2.15;;
37593;SDS011;23441;50.856;6.076;2023-08-12T19:14:43;7.80;;;2.38;;
37593;SDS011;23441;50.856;6.076;2023-08-12T19:17:10;6.15;;;2.10;;
37593;SDS011;23441;50.856;6.076;2023-08-12T19:19:35;5.32;;;2.50;;
37593;SDS011;23441;50.856;6.076;2023-08-12T19:22:01;4.63;;;2.80;;
37593;SDS011;23441;50.856;6.076;2023-08-12T19:24:27;5.05;;;2.53;;
37593;SDS011;23441;50.856;6.076;2023-08-12T19:26:52;4.63;;;2.85;;
37593;SDS011;23441;50.856;6.076;2023-08-12T19:29:18;5.68;;;2.55;;
37593;SDS011;23441;50.856;6.076;2023-08-12T19:31:44;4.40;;;2.35;;
37593;SDS011;23441;50.856;6.076;2023-08-12T19:34:09;9.73;;;3.90;;
37593;SDS011;23441;50.856;6.076;2023-08-12T19:36:35;7.63;;;4.15;;
37593;SDS011;23441;50.856;6.076;2023-08-12T19:39:00;10.57;;;4.70;;
37593;SDS011;23441;50.856;6.076;2023-08-12T19:41:26;9.43;;;3.90;;
37593;SDS011;23441;50.856;6.076;2023-08-12T19:43:52;8.05;;;3.90;;
37593;SDS011;23441;50.856;6.076;2023-08-12T19:46:17;8.15;;;3.67;;
37593;SDS011;23441;50.856;6.076;2023-08-12T19:48:43;8.00;;;3.78;;
37593;SDS011;23441;50.856;6.076;2023-08-12T19:51:09;10.65;;;3.83;;
37593;SDS011;23441;50.856;6.076;2023-08-12T19:53:34;7.13;;;2.90;;
37593;SDS011;23441;50.856;6.076;2023-08-12T19:56:00;6.70;;;3.40;;
37593;SDS011;23441;50.856;6.076;2023-08-12T19:58:25;6.30;;;3.15;;
37593;SDS011;23441;50.856;6.076;2023-08-12T20:00:51;5.57;;;3.00;;
37593;SDS011;23441;50.856;6.076;2023-08-12T20:03:16;8.00;;;3.08;;
37593;SDS011;23441;50.856;6.076;2023-08-12T20:05:42;5.53;;;3.20;;
37593;SDS011;23441;50.856;6.076;2023-08-12T20:08:08;6.45;;;2.83;;
37593;SDS011;23441;50.856;6.076;2023-08-12T20:10:33;5.05;;;2.75;;
37593;SDS011;23441;50.856;6.076;2023-08-12T20:12:59;7.57;;;3.00;;
37593;SDS011;23441;50.856;6.076;2023-08-12T20:15:26;5.13;;;2.42;;
37593;SDS011;23441;50.856;6.076;2023-08-12T20:17:52;3.72;;;2.30;;
37593;SDS011;23441;50.856;6.076;2023-08-12T20:20:18;5.35;;;2.63;;
37593;SDS011;23441;50.856;6.076;2023-08-12T20:22:44;5.35;;;2.67;;
37593;SDS011;23441;50.856;6.076;2023-08-12T20:25:11;7.13;;;2.95;;
37593;SDS011;23441;50.856;6.076;2023-08-12T20:27:37;7.10;;;2.85;;
37593;SDS011;23441;50.856;6.076;2023-08-12T20:30:03;5.38;;;2.50;;
37593;SDS011;23441;50.856;6.076;2023-08-12T20:32:30;5.38;;;2.47;;
37593;SDS011;23441;50.856;6.076;2023-08-12T20:34:59;9.40;;;2.97;;
37593;SDS011;23441;50.856;6.076;2023-08-12T20:37:25;4.65;;;2.17;;
37593;SDS011;23441;50.856;6.076;2023-08-12T20:39:52;6.75;;;2.70;;
37593;SDS011;23441;50.856;6.076;2023-08-12T20:42:19;9.68;;;2.67;;
37593;SDS011;23441;50.856;6.076;2023-08-12T20:44:45;7.35;;;2.55;;
37593;SDS011;23441;50.856;6.076;2023-08-12T20:47:11;4.47;;;2.42;;
37593;SDS011;23441;50.856;6.076;2023-08-12T20:49:37;7.85;;;2.45;;
37593;SDS011;23441;50.856;6.076;2023-08-12T20:52:03;5.72;;;2.75;;
37593;SDS011;23441;50.856;6.076;2023-08-12T20:54:29;9.82;;;2.92;;
37593;SDS011;23441;50.856;6.076;2023-08-12T20:56:55;6.45;;;2.90;;
37593;SDS011;23441;50.856;6.076;2023-08-12T20:59:20;5.95;;;2.72;;
37593;SDS011;23441;50.856;6.076;2023-08-12T21:01:46;8.40;;;2.90;;
37593;SDS011;23441;50.856;6.076;2023-08-12T21:04:12;5.55;;;2.65;;
37593;SDS011;23441;50.856;6.076;2023-08-12T21:06:38;9.32;;;3.30;;
37593;SDS011;23441;50.856;6.076;2023-08-12T21:09:04;5.75;;;2.53;;
37593;SDS011;23441;50.856;6.076;2023-08-12T21:11:30;4.75;;;2.50;;
37593;SDS011;23441;50.856;6.076;2023-08-12T21:13:56;4.35;;;2.70;;
37593;SDS011;23441;50.856;6.076;2023-08-12T21:16:22;7.95;;;2.88;;
37593;SDS011;23441;50.856;6.076;2023-08-12T21:18:48;8.00;;;3.25;;
37593;SDS011;23441;50.856;6.076;2023-08-12T21:21:13;7.82;;;2.67;;
37593;SDS011;23441;50.856;6.076;2023-08-12T21:23:39;4.38;;;2.78;;
37593;SDS011;23441;50.856;6.076;2023-08-12T21:26:05;6.03;;;2.90;;
37593;SDS011;23441;50.856;6.076;2023-08-12T21:28:31;4.55;;;2.67;;
37593;SDS011;23441;50.856;6.076;2023-08-12T21:30:56;7.53;;;3.30;;
37593;SDS011;23441;50.856;6.076;2023-08-12T21:33:22;5.75;;;3.47;;
37593;SDS011;23441;50.856;6.076;2023-08-12T21:35:47;8.77;;;3.50;;
37593;SDS011;23441;50.856;6.076;2023-08-12T21:38:14;4.95;;;3.30;;
37593;SDS011;23441;50.856;6.076;2023-08-12T21:40:39;11.27;;;3.38;;
37593;SDS011;23441;50.856;6.076;2023-08-12T21:43:05;8.35;;;3.65;;
37593;SDS011;23441;50.856;6.076;2023-08-12T21:45:30;6.43;;;3.92;;
37593;SDS011;23441;50.856;6.076;2023-08-12T21:47:56;4.38;;;2.85;;
37593;SDS011;23441;50.856;6.076;2023-08-12T21:50:22;6.45;;;3.15;;
37593;SDS011;23441;50.856;6.076;2023-08-12T21:52:47;7.20;;;3.72;;
37593;SDS011;23441;50.856;6.076;2023-08-12T21:55:13;13.18;;;4.07;;
37593;SDS011;23441;50.856;6.076;2023-08-12T21:57:40;9.02;;;4.22;;
37593;SDS011;23441;50.856;6.076;2023-08-12T22:00:06;6.47;;;4.18;;
37593;SDS011;23441;50.856;6.076;2023-08-12T22:02:36;6.95;;;4.07;;
37593;SDS011;23441;50.856;6.076;2023-08-12T22:05:02;10.45;;;3.78;;
37593;SDS011;23441;50.856;6.076;2023-08-12T22:07:27;7.40;;;3.42;;
37593;SDS011;23441;50.856;6.076;2023-08-12T22:09:53;7.95;;;3.80;;
37593;SDS011;23441;50.856;6.076;2023-08-12T22:12:19;12.10;;;3.30;;
37593;SDS011;23441;50.856;6.076;2023-08-12T22:14:44;7.13;;;3.53;;
37593;SDS011;23441;50.856;6.076;2023-08-12T22:17:10;6.55;;;3.20;;
37593;SDS011;23441;50.856;6.076;2023-08-12T22:19:36;4.22;;;2.88;;
37593;SDS011;23441;50.856;6.076;2023-08-12T22:22:01;6.85;;;3.72;;
37593;SDS011;23441;50.856;6.076;2023-08-12T22:24:27;4.43;;;2.80;;
37593;SDS011;23441;50.856;6.076;2023-08-12T22:26:52;8.00;;;3.40;;
37593;SDS011;23441;50.856;6.076;2023-08-12T22:29:19;8.38;;;3.05;;
37593;SDS011;23441;50.856;6.076;2023-08-12T22:31:45;9.23;;;3.40;;
37593;SDS011;23441;50.856;6.076;2023-08-12T22:34:11;7.93;;;3.38;;
37593;SDS011;23441;50.856;6.076;2023-08-12T22:36:37;8.60;;;3.30;;
37593;SDS011;23441;50.856;6.076;2023-08-12T22:39:04;6.88;;;3.22;;
37593;SDS011;23441;50.856;6.076;2023-08-12T22:41:30;8.05;;;3.65;;
37593;SDS011;23441;50.856;6.076;2023-08-12T22:43:56;6.05;;;3.10;;
37593;SDS011;23441;50.856;6.076;2023-08-12T22:46:22;9.93;;;3.72;;
37593;SDS011;23441;50.856;6.076;2023-08-12T22:48:47;6.93;;;3.38;;
37593;SDS011;23441;50.856;6.076;2023-08-12T22:51:13;10.27;;;5.32;;
37593;SDS011;23441;50.856;6.076;2023-08-12T22:53:39;15.98;;;7.35;;
37593;SDS011;23441;50.856;6.076;2023-08-12T22:56:04;17.70;;;8.40;;
37593;SDS011;23441;50.856;6.076;2023-08-12T22:58:30;15.27;;;6.55;;
37593;SDS011;23441;50.856;6.076;2023-08-12T23:00:56;9.82;;;4.07;;
37593;SDS011;23441;50.856;6.076;2023-08-12T23:03:21;9.40;;;4.18;;
37593;SDS011;23441;50.856;6.076;2023-08-12T23:05:47;7.57;;;4.28;;
37593;SDS011;23441;50.856;6.076;2023-08-12T23:08:12;8.48;;;3.90;;
37593;SDS011;23441;50.856;6.076;2023-08-12T23:10:39;8.98;;;4.28;;
37593;SDS011;23441;50.856;6.076;2023-08-12T23:13:04;14.43;;;4.10;;
37593;SDS011;23441;50.856;6.076;2023-08-12T23:15:30;12.48;;;3.72;;
37593;SDS011;23441;50.856;6.076;2023-08-12T23:17:56;11.85;;;3.72;;
37593;SDS011;23441;50.856;6.076;2023-08-12T23:20:22;7.70;;;3.70;;
37593;SDS011;23441;50.856;6.076;2023-08-12T23:22:48;10.70;;;3.53;;
37593;SDS011;23441;50.856;6.076;2023-08-12T23:25:13;11.13;;;3.72;;
37593;SDS011;23441;50.856;6.076;2023-08-12T23:27:39;6.15;;;2.97;;
37593;SDS011;23441;50.856;6.076;2023-08-12T23:30:05;5.75;;;3.15;;
37593;SDS011;23441;50.856;6.076;2023-08-12T23:32:31;8.55;;;3.65;;
37593;SDS011;23441;50.856;6.076;2023-08-12T23:34:57;4.68;;;2.88;;
37593;SDS011;23441;50.856;6.076;2023-08-12T23:37:22;8.95;;;2.60;;
37593;SDS011;23441;50.856;6.076;2023-08-12T23:39:48;9.60;;;3.13;;
37593;SDS011;23441;50.856;6.076;2023-08-12T23:42:13;5.80;;;3.33;;
37593;SDS011;23441;50.856;6.076;2023-08-12T23:44:39;7.07;;;3.40;;
37593;SDS011;23441;50.856;6.076;2023-08-12T23:47:04;7.82;;;3.42;;
37593;SDS011;23441;50.856;6.076;2023-08-12T23:49:30;9.45;;;3.10;;
37593;SDS011;23441;50.856;6.076;2023-08-12T23:51:57;7.43;;;3.03;;
37593;SDS011;23441;50.856;6.076;2023-08-12T23:54:23;9.50;;;3.20;;
37593;SDS011;23441;50.856;6.076;2023-08-12T23:56:48;9.93;;;3.55;;
37593;SDS011;23441;50.856;6.076;2023-08-12T23:59:14;6.07;;;3.70;;
